Time;durP1;ratioP1;P1;durP2;ratioP2;P2;SDS_P1;SDS_P2;PMS_P1;PMS_P2;Temp;Humidity;BMP_temperature;BMP_pressure;BME280_temperature;BME280_humidity;BME280_pressure;Samples;Min_cycle;Max_cycle;Signal;HPM_P1;HPM_P2
2021/12/14 00:02:16;;;;;;;34.63;25.63;;;8.10;99.90;;;;;;5069095;28;20040;-71
2021/12/14 00:04:44;;;;;;;32.85;25.20;;;8.10;99.90;;;;;;5068635;28;20040;-71
2021/12/14 00:07:14;;;;;;;35.33;24.45;;;8.10;99.90;;;;;;5068729;28;20073;-71
2021/12/14 00:09:42;;;;;;;29.42;24.08;;;8.10;99.90;;;;;;5063085;28;20581;-71
2021/12/14 00:17:25;;;;;;;31.23;23.50;;;8.10;99.90;;;;;;5069226;28;20044;-71
2021/12/14 00:19:54;;;;;;;29.00;24.15;;;8.10;99.90;;;;;;5070957;28;20055;-71
2021/12/14 00:22:30;;;;;;;;;;;8.00;99.90;;;;;;5070807;28;20059;-71
2021/12/14 00:24:57;;;;;;;33.72;25.42;;;8.00;99.90;;;;;;5069766;28;19949;-71
2021/12/14 00:27:25;;;;;;;37.38;25.67;;;8.00;99.90;;;;;;5071405;28;20071;-71
2021/12/14 00:29:55;;;;;;;32.00;22.80;;;8.00;99.90;;;;;;5065000;28;20056;-71
2021/12/14 00:32:27;;;;;;;27.48;23.60;;;8.10;99.90;;;;;;5067755;28;20044;-71
2021/12/14 00:34:57;;;;;;;32.45;23.88;;;8.10;99.90;;;;;;5067409;28;20150;-71
2021/12/14 00:37:31;;;;;;;30.48;23.35;;;8.10;99.90;;;;;;5061584;28;20125;-71
2021/12/14 00:39:59;;;;;;;32.13;25.33;;;8.10;99.90;;;;;;5068883;28;20075;-71
2021/12/14 00:42:25;;;;;;;36.38;25.20;;;8.10;99.90;;;;;;5068676;28;20101;-71
2021/12/14 00:44:51;;;;;;;30.17;24.05;;;8.10;99.90;;;;;;5067610;28;21670;-71
2021/12/14 00:47:17;;;;;;;33.13;24.73;;;8.10;99.90;;;;;;5067763;28;20059;-71
2021/12/14 00:49:43;;;;;;;29.58;23.73;;;8.10;99.90;;;;;;5066892;28;20050;-71
2021/12/14 00:52:10;;;;;;;31.77;24.42;;;8.10;99.90;;;;;;5069764;28;20052;-71
2021/12/14 00:54:37;;;;;;;33.17;24.08;;;8.10;99.90;;;;;;5067757;28;20044;-71
2021/12/14 00:57:05;;;;;;;37.63;25.80;;;8.10;99.90;;;;;;5060972;28;20511;-71
2021/12/14 00:59:32;;;;;;;;;;;8.10;99.90;;;;;;5064615;28;20382;-71
2021/12/14 01:02:08;;;;;;;36.45;24.73;;;8.10;99.90;;;;;;5065242;28;19955;-71
2021/12/14 01:04:54;;;;;;;38.28;25.42;;;8.00;99.90;;;;;;5091548;28;20140;-71
2021/12/14 01:07:24;;;;;;;34.67;25.30;;;8.10;99.90;;;;;;5072848;28;20091;-71
2021/12/14 01:09:54;;;;;;;33.05;26.92;;;8.10;99.90;;;;;;5070768;28;20525;-71
2021/12/14 01:12:32;;;;;;;39.38;26.80;;;8.10;99.90;;;;;;5064169;28;20040;-71
2021/12/14 01:15:50;;;;;;;35.88;26.38;;;8.10;99.90;;;;;;5065620;28;20036;-71
2021/12/14 01:20:45;;;;;;;35.38;28.30;;;8.00;99.90;;;;;;5087208;28;20052;-71
2021/12/14 01:23:25;;;;;;;35.53;27.65;;;8.00;99.90;;;;;;5070496;28;20058;-71
2021/12/14 01:25:53;;;;;;;39.92;27.85;;;8.00;99.90;;;;;;5085818;28;20090;-71
2021/12/14 01:28:23;;;;;;;42.03;29.33;;;8.00;99.90;;;;;;5066811;28;20509;-71
2021/12/14 01:31:27;;;;;;;42.17;27.42;;;8.00;99.90;;;;;;5063232;28;20039;-71
2021/12/14 01:33:54;;;;;;;42.53;29.98;;;8.10;99.90;;;;;;5063822;28;20055;-71
2021/12/14 01:36:36;;;;;;;40.38;30.02;;;8.00;99.90;;;;;;5063579;28;20162;-71
2021/12/14 01:41:50;;;;;;;41.33;30.05;;;8.00;99.90;;;;;;5070903;28;20052;-71
2021/12/14 01:44:16;;;;;;;46.88;30.67;;;8.10;99.90;;;;;;5063466;28;20040;-71
2021/12/14 01:46:53;;;;;;;45.83;31.42;;;8.00;99.90;;;;;;5060190;28;20051;-71
2021/12/14 01:49:19;;;;;;;41.92;30.40;;;8.00;99.90;;;;;;5068489;28;20051;-71
2021/12/14 01:51:49;;;;;;;41.83;30.05;;;8.00;99.90;;;;;;5089790;28;20044;-71
2021/12/14 01:54:19;;;;;;;41.55;30.65;;;8.00;99.90;;;;;;5068116;28;20079;-71
2021/12/14 01:56:45;;;;;;;48.08;30.38;;;8.00;99.90;;;;;;5070019;28;20051;-71
2021/12/14 01:59:33;;;;;;;40.30;30.00;;;8.00;99.90;;;;;;5069733;28;20234;-71
2021/12/14 02:02:19;;;;;;;46.95;33.38;;;8.10;99.90;;;;;;5055651;28;20047;-71
2021/12/14 02:04:48;;;;;;;41.67;31.25;;;8.00;99.90;;;;;;5058951;28;20079;-71
2021/12/14 02:07:17;;;;;;;45.65;31.42;;;8.00;99.90;;;;;;5070692;28;20040;-71
2021/12/14 02:09:45;;;;;;;39.42;30.05;;;8.00;99.90;;;;;;5058609;28;20405;-71
2021/12/14 02:12:16;;;;;;;49.45;33.08;;;8.00;99.90;;;;;;5043871;28;20070;-71
2021/12/14 02:14:42;;;;;;;47.88;33.85;;;8.00;99.90;;;;;;5068313;28;20066;-71
2021/12/14 02:17:12;;;;;;;47.58;32.38;;;8.00;99.90;;;;;;5069800;28;20159;-71
2021/12/14 02:19:39;;;;;;;45.35;33.75;;;8.00;99.90;;;;;;5086807;28;20093;-71
2021/12/14 02:22:07;;;;;;;47.70;31.15;;;8.00;99.90;;;;;;5054109;28;20444;-71
2021/12/14 02:24:35;;;;;;;53.10;34.53;;;8.00;99.90;;;;;;5071401;28;20108;-71
2021/12/14 02:27:01;;;;;;;47.97;33.65;;;8.00;99.90;;;;;;5059789;28;20052;-71
2021/12/14 02:29:33;;;;;;;48.67;33.28;;;8.00;99.90;;;;;;5060585;28;20131;-71
2021/12/14 02:32:06;;;;;;;48.15;34.05;;;8.00;99.90;;;;;;5069133;28;20138;-71
2021/12/14 02:34:41;;;;;;;48.63;33.20;;;8.00;99.90;;;;;;5069635;28;20443;-71
2021/12/14 02:37:10;;;;;;;54.00;34.58;;;8.00;99.90;;;;;;5065743;28;20048;-71
2021/12/14 02:42:08;;;;;;;49.58;34.45;;;8.00;99.90;;;;;;5071918;28;20081;-71
2021/12/14 02:44:33;;;;;;;;;;;8.00;99.90;;;;;;5062747;28;20049;-71
2021/12/14 02:47:09;;;;;;;49.17;32.25;;;8.00;99.90;;;;;;5065131;28;19930;-71
2021/12/14 02:49:37;;;;;;;45.80;32.70;;;8.00;99.90;;;;;;5060619;28;20052;-71
2021/12/14 02:52:10;;;;;;;45.65;33.28;;;8.00;99.90;;;;;;5040377;28;20120;-71
2021/12/14 02:54:40;;;;;;;47.95;32.30;;;8.00;99.90;;;;;;5085838;28;20774;-71
2021/12/14 02:57:30;;;;;;;45.38;32.25;;;8.00;99.90;;;;;;5070657;28;20048;-70
2021/12/14 02:59:57;;;;;;;44.42;31.25;;;8.00;99.90;;;;;;5069451;28;20051;-70
2021/12/14 03:02:32;;;;;;;55.83;33.60;;;8.00;99.90;;;;;;5102712;28;20048;-70
2021/12/14 03:05:03;;;;;;;49.63;34.85;;;8.00;99.90;;;;;;5068038;28;20131;-70
2021/12/14 03:07:39;;;;;;;53.75;34.92;;;8.00;99.90;;;;;;5069707;28;20106;-71
2021/12/14 03:12:45;;;;;;;46.15;33.85;;;8.00;99.90;;;;;;5061775;28;20123;-71
2021/12/14 03:15:28;;;;;;;53.60;36.40;;;8.00;99.90;;;;;;5069128;28;20040;-71
2021/12/14 03:17:57;;;;;;;54.33;35.88;;;8.00;99.90;;;;;;5080065;28;20067;-71
2021/12/14 03:20:55;;;;;;;54.65;36.47;;;8.00;99.90;;;;;;5069620;28;20830;-71
2021/12/14 03:23:29;;;;;;;63.72;36.80;;;8.00;99.90;;;;;;5046885;28;20469;-71
2021/12/14 03:25:58;;;;;;;56.45;36.17;;;8.00;99.90;;;;;;5060013;28;20082;-70
2021/12/14 03:28:26;;;;;;;51.80;37.38;;;8.00;99.90;;;;;;5067320;28;20097;-71
2021/12/14 03:30:59;;;;;;;53.15;34.67;;;8.00;99.90;;;;;;5069041;28;20151;-71
2021/12/14 03:33:30;;;;;;;54.60;36.42;;;8.00;99.90;;;;;;5069945;28;20048;-71
2021/12/14 03:36:00;;;;;;;53.35;36.42;;;8.00;99.90;;;;;;5081411;28;20135;-71
2021/12/14 03:38:41;;;;;;;54.50;35.25;;;7.90;99.90;;;;;;5069960;28;20048;-71
2021/12/14 03:41:12;;;;;;;57.00;37.55;;;7.90;99.90;;;;;;5069433;28;20048;-71
2021/12/14 03:43:42;;;;;;;59.83;39.28;;;7.90;99.90;;;;;;5066994;28;20072;-71
2021/12/14 03:46:09;;;;;;;54.58;36.45;;;7.80;99.90;;;;;;5075405;28;20048;-71
2021/12/14 03:48:36;;;;;;;58.03;37.17;;;7.80;99.90;;;;;;5053690;28;20036;-71
2021/12/14 03:51:03;;;;;;;55.90;36.80;;;7.70;99.90;;;;;;5063421;28;20060;-71
2021/12/14 03:53:30;;;;;;;56.78;38.67;;;7.70;99.90;;;;;;5059086;28;20106;-71
2021/12/14 03:56:05;;;;;;;59.33;38.78;;;7.70;99.90;;;;;;5060065;28;20040;-70
2021/12/14 03:58:40;;;;;;;64.85;39.83;;;7.70;99.90;;;;;;5068047;28;20586;-71
2021/12/14 04:01:10;;;;;;;59.13;37.80;;;7.60;99.90;;;;;;5066240;28;20051;-71
2021/12/14 04:03:37;;;;;;;58.38;38.35;;;7.60;99.90;;;;;;5067591;28;20075;-71
2021/12/14 04:06:05;;;;;;;62.05;39.70;;;7.60;99.90;;;;;;5067987;28;20091;-70
2021/12/14 04:08:32;;;;;;;57.08;38.85;;;7.60;99.90;;;;;;5062369;28;20059;-70
2021/12/14 04:11:02;;;;;;;64.05;40.97;;;7.60;99.90;;;;;;5066097;28;20084;-70
2021/12/14 04:13:34;;;;;;;59.28;38.13;;;7.60;99.90;;;;;;5067834;28;20032;-70
2021/12/14 04:16:00;;;;;;;65.95;41.28;;;7.60;99.90;;;;;;5068026;28;20052;-70
2021/12/14 04:18:27;;;;;;;64.72;41.03;;;7.60;99.90;;;;;;5067116;28;20043;-71
2021/12/14 04:20:55;;;;;;;62.80;40.78;;;7.60;99.90;;;;;;5066002;28;20052;-71
2021/12/14 04:23:26;;;;;;;72.43;40.95;;;7.60;99.90;;;;;;5069212;28;20078;-71
2021/12/14 04:25:54;;;;;;;67.70;43.55;;;7.60;99.90;;;;;;5066806;28;20048;-71
2021/12/14 04:28:25;;;;;;;68.00;42.50;;;7.50;99.90;;;;;;5051644;28;20135;-71
2021/12/14 04:30:51;;;;;;;66.40;42.90;;;7.50;99.90;;;;;;5066325;28;20044;-71
2021/12/14 04:33:24;;;;;;;69.90;43.13;;;7.50;99.90;;;;;;5050583;28;20048;-71
2021/12/14 04:35:51;;;;;;;72.57;43.55;;;7.50;99.90;;;;;;5067214;28;20485;-71
2021/12/14 04:38:23;;;;;;;79.22;46.22;;;7.50;99.90;;;;;;5070110;28;20167;-71
2021/12/14 04:51:59;;;;;;;72.53;45.55;;;7.50;99.90;;;;;;5081844;28;20064;-70
2021/12/14 04:54:50;;;;;;;75.97;45.65;;;7.50;99.90;;;;;;5083628;28;20048;-70
2021/12/14 04:57:28;;;;;;;70.70;45.72;;;7.50;99.90;;;;;;5069115;28;20051;-70
2021/12/14 04:59:58;;;;;;;70.65;45.97;;;7.50;99.90;;;;;;5063021;28;20079;-70
2021/12/14 05:02:29;;;;;;;70.38;44.92;;;7.50;99.90;;;;;;5089573;28;20048;-70
2021/12/14 05:04:56;;;;;;;72.78;45.70;;;7.60;99.90;;;;;;5070973;28;20044;-70
2021/12/14 05:10:04;;;;;;;64.88;43.28;;;7.60;99.90;;;;;;5070217;28;20053;-70
2021/12/14 05:12:33;;;;;;;68.82;46.28;;;7.60;99.90;;;;;;5070807;28;20043;-70
2021/12/14 05:15:03;;;;;;;72.40;46.25;;;7.60;99.90;;;;;;5060759;28;20044;-70
2021/12/14 05:17:32;;;;;;;72.65;44.75;;;7.60;99.90;;;;;;5069258;28;20048;-70
2021/12/14 05:19:58;;;;;;;74.68;47.90;;;7.60;99.90;;;;;;5071263;28;20048;-70
2021/12/14 05:22:32;;;;;;;69.25;45.45;;;7.60;99.90;;;;;;5074835;28;20428;-70
2021/12/14 05:25:04;;;;;;;71.38;43.35;;;7.70;99.90;;;;;;5068599;28;20076;-70
2021/12/14 05:27:39;;;;;;;77.95;45.95;;;7.70;99.90;;;;;;5068803;28;20060;-70
2021/12/14 05:30:11;;;;;;;75.13;48.72;;;7.70;99.90;;;;;;5087522;28;20101;-70
2021/12/14 05:32:37;;;;;;;71.18;43.45;;;7.70;99.90;;;;;;5067520;28;20048;-70
2021/12/14 05:35:04;;;;;;;71.38;46.17;;;7.70;99.90;;;;;;5071897;28;20043;-70
2021/12/14 05:37:34;;;;;;;79.53;49.10;;;7.70;99.90;;;;;;5090546;28;20059;-70
2021/12/14 05:40:05;;;;;;;69.28;45.70;;;7.80;99.90;;;;;;5068193;28;20135;-70
2021/12/14 05:45:21;;;;;;;78.03;48.88;;;7.80;99.90;;;;;;5065014;28;20056;-70
2021/12/14 05:47:54;;;;;;;73.30;48.28;;;7.80;99.90;;;;;;5071940;28;20051;-70
2021/12/14 05:50:24;;;;;;;73.35;48.25;;;7.80;99.90;;;;;;5072231;28;20060;-70
2021/12/14 05:52:50;;;;;;;83.70;49.47;;;7.80;99.90;;;;;;5074209;28;20150;-70
2021/12/14 05:55:23;;;;;;;72.38;45.13;;;7.90;99.90;;;;;;5061547;28;20578;-70
2021/12/14 05:57:48;;;;;;;78.30;50.05;;;7.90;99.90;;;;;;5057700;28;20079;-70
2021/12/14 06:00:16;;;;;;;77.93;48.60;;;7.90;99.90;;;;;;5052976;28;20144;-70
2021/12/14 06:02:42;;;;;;;79.50;48.92;;;7.90;99.90;;;;;;5071845;28;20181;-70
2021/12/14 06:05:14;;;;;;;79.60;48.40;;;7.90;99.90;;;;;;5081805;28;20154;-70
2021/12/14 06:07:39;;;;;;;87.25;52.35;;;7.90;99.90;;;;;;5072559;28;20049;-70
2021/12/14 06:10:06;;;;;;;77.40;48.20;;;7.90;99.90;;;;;;5071262;28;20408;-70
2021/12/14 06:12:34;;;;;;;81.22;49.17;;;7.90;99.90;;;;;;5067270;28;20106;-70
2021/12/14 06:15:01;;;;;;;83.03;50.78;;;7.90;99.90;;;;;;5061356;28;20070;-70
2021/12/14 06:17:37;;;;;;;84.77;52.03;;;7.90;99.90;;;;;;5070905;28;20051;-70
2021/12/14 06:20:19;;;;;;;97.65;57.10;;;7.90;99.90;;;;;;5070347;28;20048;-70
2021/12/14 06:22:46;;;;;;;97.75;56.45;;;7.90;99.90;;;;;;5055159;28;20053;-70
2021/12/14 06:25:16;;;;;;;91.18;52.42;;;7.90;99.90;;;;;;5070841;28;20056;-70
2021/12/14 06:27:45;;;;;;;98.55;58.00;;;7.90;99.90;;;;;;5068474;28;20409;-70
2021/12/14 06:30:16;;;;;;;101.80;56.15;;;7.90;99.90;;;;;;5069520;28;20447;-70
2021/12/14 06:32:50;;;;;;;96.38;57.80;;;7.90;99.90;;;;;;5069381;28;20052;-70
2021/12/14 06:35:27;;;;;;;97.32;56.85;;;7.90;99.90;;;;;;5057075;28;20471;-70
2021/12/14 06:38:25;;;;;;;101.40;57.78;;;7.80;99.90;;;;;;5071333;28;20092;-70
2021/12/14 06:41:06;;;;;;;93.40;55.17;;;7.90;99.90;;;;;;5070883;28;20040;-70
2021/12/14 06:43:54;;;;;;;99.57;56.38;;;7.80;99.90;;;;;;5087917;28;20507;-70
2021/12/14 06:46:33;;;;;;;100.25;58.28;;;7.90;99.90;;;;;;5063807;28;20045;-70
2021/12/14 06:49:10;;;;;;;106.32;61.25;;;7.90;99.90;;;;;;5049046;28;20773;-70
2021/12/14 06:51:46;;;;;;;107.32;62.13;;;7.80;99.90;;;;;;5064877;28;20048;-70
2021/12/14 06:54:32;;;;;;;110.32;62.08;;;7.90;99.90;;;;;;5070089;28;20090;-70
2021/12/14 06:57:02;;;;;;;103.93;61.08;;;7.90;99.90;;;;;;5059352;28;20163;-70
2021/12/14 06:59:28;;;;;;;110.35;63.13;;;7.90;99.90;;;;;;5071021;28;20130;-70
2021/12/14 07:01:57;;;;;;;106.72;63.58;;;7.90;99.90;;;;;;5069200;28;20040;-70
2021/12/14 07:04:28;;;;;;;110.18;62.67;;;7.90;99.90;;;;;;5087767;28;20511;-70
2021/12/14 07:07:03;;;;;;;107.93;62.05;;;7.90;99.90;;;;;;5089400;28;20440;-70
2021/12/14 07:09:41;;;;;;;107.53;62.60;;;7.90;99.90;;;;;;5055090;28;20841;-70
2021/12/14 07:12:23;;;;;;;107.20;60.38;;;7.90;99.90;;;;;;5060889;28;20535;-70
2021/12/14 07:14:49;;;;;;;115.13;63.95;;;7.90;99.90;;;;;;5065541;28;20149;-70
2021/12/14 07:17:31;;;;;;;107.47;63.22;;;7.90;99.90;;;;;;5067295;28;20612;-70
2021/12/14 07:20:03;;;;;;;113.75;62.75;;;7.90;99.90;;;;;;5059212;28;20043;-70
2021/12/14 07:23:18;;;;;;;111.18;63.67;;;7.90;99.90;;;;;;5072151;28;20483;-70
2021/12/14 07:25:50;;;;;;;112.68;64.35;;;7.90;99.90;;;;;;4989329;28;20054;-70
2021/12/14 07:28:17;;;;;;;125.10;66.97;;;7.90;99.90;;;;;;5066476;28;20097;-70
2021/12/14 07:30:59;;;;;;;116.40;66.33;;;7.90;99.90;;;;;;5064478;28;20045;-70
2021/12/14 07:33:32;;;;;;;115.15;64.97;;;7.90;99.90;;;;;;5083950;28;20048;-70
2021/12/14 07:36:08;;;;;;;113.90;63.92;;;7.90;99.90;;;;;;5069288;28;20048;-70
2021/12/14 07:38:53;;;;;;;117.13;66.95;;;7.90;99.90;;;;;;5065087;28;20444;-70
2021/12/14 07:41:31;;;;;;;118.57;67.28;;;7.90;99.90;;;;;;5064243;28;20075;-70
2021/12/14 07:44:14;;;;;;;122.68;67.32;;;7.90;99.90;;;;;;5059172;28;20072;-70
2021/12/14 07:46:48;;;;;;;119.97;63.80;;;7.90;99.90;;;;;;5073190;28;20047;-70
2021/12/14 07:49:23;;;;;;;121.50;66.18;;;7.90;99.90;;;;;;5069253;28;20040;-70
2021/12/14 07:51:52;;;;;;;124.22;66.57;;;7.90;99.90;;;;;;5086174;28;20389;-70
2021/12/14 07:54:31;;;;;;;128.98;72.45;;;7.90;99.90;;;;;;5077563;28;20088;-70
2021/12/14 07:57:04;;;;;;;;;;;7.90;99.90;;;;;;5068431;28;20055;-70
2021/12/14 07:59:38;;;;;;;133.85;69.05;;;7.90;99.90;;;;;;5060636;28;19931;-70
2021/12/14 08:02:27;;;;;;;129.40;71.13;;;7.90;99.90;;;;;;5070113;28;20035;-70
2021/12/14 08:05:11;;;;;;;130.77;68.65;;;7.90;99.90;;;;;;5090027;28;20049;-70
2021/12/14 08:07:40;;;;;;;139.65;72.25;;;8.00;99.90;;;;;;5083380;28;20062;-70
2021/12/14 08:10:14;;;;;;;140.90;72.00;;;8.00;99.90;;;;;;5040354;28;20052;-69
2021/12/14 08:12:44;;;;;;;142.88;76.25;;;8.00;99.90;;;;;;5067217;28;20056;-69
2021/12/14 08:15:17;;;;;;;145.00;75.78;;;8.00;99.90;;;;;;5064106;28;20115;-69
2021/12/14 08:17:44;;;;;;;139.18;74.28;;;8.00;99.90;;;;;;5060833;28;20049;-69
2021/12/14 08:20:20;;;;;;;141.57;76.60;;;8.00;99.90;;;;;;5062337;28;20158;-70
2021/12/14 08:22:46;;;;;;;154.25;77.78;;;8.00;99.90;;;;;;5058458;28;20483;-69
2021/12/14 08:25:15;;;;;;;141.75;75.68;;;8.00;99.90;;;;;;5078201;28;20063;-70
2021/12/14 08:27:41;;;;;;;144.23;76.45;;;8.10;99.90;;;;;;5068678;28;20056;-70
2021/12/14 08:30:13;;;;;;;134.00;71.40;;;8.10;99.90;;;;;;5067576;28;20040;-70
2021/12/14 08:32:40;;;;;;;141.82;74.22;;;8.10;99.90;;;;;;5069522;28;20051;-70
2021/12/14 08:35:13;;;;;;;142.60;75.45;;;8.10;99.90;;;;;;5051681;28;20119;-70
2021/12/14 08:37:45;;;;;;;150.50;76.68;;;8.20;99.90;;;;;;5068997;28;20052;-70
2021/12/14 08:40:26;;;;;;;146.05;73.22;;;8.20;99.90;;;;;;5064994;28;20112;-70
2021/12/14 08:43:03;;;;;;;144.48;75.10;;;8.20;99.90;;;;;;5066151;28;20049;-70
2021/12/14 08:45:33;;;;;;;143.75;77.60;;;8.20;99.90;;;;;;5065861;28;20254;-70
2021/12/14 08:48:02;;;;;;;132.48;71.13;;;8.30;99.90;;;;;;5051482;28;20136;-70
2021/12/14 08:50:31;;;;;;;133.23;69.35;;;8.40;99.90;;;;;;5068369;28;20051;-70
2021/12/14 08:52:56;;;;;;;;;;;8.30;99.90;;;;;;5061421;28;20040;-70
2021/12/14 08:55:26;;;;;;;132.75;75.68;;;8.30;99.90;;;;;;5064772;28;20312;-70
2021/12/14 08:57:51;;;;;;;140.13;73.95;;;8.40;99.90;;;;;;5061247;28;20036;-70
2021/12/14 09:00:27;;;;;;;137.73;74.38;;;8.40;99.90;;;;;;5067765;28;20050;-71
2021/12/14 09:02:58;;;;;;;146.75;75.63;;;8.40;99.90;;;;;;5069110;28;20051;-71
2021/12/14 09:05:33;;;;;;;135.48;72.82;;;8.40;99.90;;;;;;5069226;28;20054;-70
2021/12/14 09:07:59;;;;;;;129.57;71.95;;;8.40;99.90;;;;;;5064873;28;20050;-70
2021/12/14 09:10:29;;;;;;;131.65;72.00;;;8.40;99.90;;;;;;5064865;28;20132;-70
2021/12/14 09:12:59;;;;;;;129.25;71.10;;;8.50;99.90;;;;;;5065667;28;20051;-70
2021/12/14 09:15:34;;;;;;;138.65;72.57;;;8.50;99.90;;;;;;5066236;28;20572;-70
2021/12/14 09:18:00;;;;;;;138.27;74.03;;;8.50;99.90;;;;;;5064444;28;20048;-71
2021/12/14 09:20:35;;;;;;;117.45;67.57;;;8.50;99.90;;;;;;5069092;28;20489;-71
2021/12/14 09:23:10;;;;;;;138.40;72.55;;;8.50;99.90;;;;;;5064243;28;20119;-71
2021/12/14 09:25:37;;;;;;;123.18;72.50;;;8.50;99.90;;;;;;5072671;28;20108;-71
2021/12/14 09:28:04;;;;;;;139.27;74.28;;;8.50;99.90;;;;;;5072448;28;20065;-70
2021/12/14 09:30:34;;;;;;;125.60;70.78;;;8.50;99.90;;;;;;5069915;28;20198;-70
2021/12/14 09:33:00;;;;;;;119.97;67.10;;;8.50;99.90;;;;;;5066428;28;20477;-71
2021/12/14 09:35:28;;;;;;;114.80;65.93;;;8.60;99.90;;;;;;5069778;28;20079;-71
2021/12/14 09:37:58;;;;;;;122.93;70.40;;;8.60;99.90;;;;;;5068961;28;20884;-72
2021/12/14 09:40:37;;;;;;;112.75;67.68;;;8.50;99.90;;;;;;5068038;28;20888;-71
2021/12/14 09:43:03;;;;;;;132.18;72.35;;;8.60;99.90;;;;;;5071188;28;20394;-71
2021/12/14 09:45:35;;;;;;;122.40;69.80;;;8.60;99.90;;;;;;5069695;28;20055;-71
2021/12/14 09:48:03;;;;;;;114.65;70.47;;;8.60;99.90;;;;;;5069016;28;20041;-71
2021/12/14 09:50:32;;;;;;;117.00;67.28;;;8.60;99.90;;;;;;5068343;28;20820;-71
2021/12/14 09:52:59;;;;;;;115.40;66.43;;;8.70;99.90;;;;;;5060880;28;20098;-71
2021/12/14 09:55:29;;;;;;;113.65;66.72;;;8.70;99.90;;;;;;5068496;28;20482;-71
2021/12/14 09:57:59;;;;;;;113.65;66.18;;;8.70;99.90;;;;;;5071869;28;20076;-71
2021/12/14 10:00:32;;;;;;;119.78;70.57;;;8.70;99.90;;;;;;5064100;28;20055;-71
2021/12/14 10:03:01;;;;;;;109.88;65.85;;;8.80;99.90;;;;;;5068916;28;20040;-70
2021/12/14 10:05:43;;;;;;;112.85;69.95;;;8.80;99.90;;;;;;5068614;28;20444;-71
2021/12/14 10:08:18;;;;;;;118.05;66.68;;;8.80;99.90;;;;;;5072087;28;20063;-71
2021/12/14 10:10:58;;;;;;;127.50;70.63;;;8.80;99.90;;;;;;5067813;28;20044;-71
2021/12/14 10:13:25;;;;;;;116.28;68.70;;;8.90;99.90;;;;;;5068126;28;20056;-71
2021/12/14 10:15:53;;;;;;;116.53;67.20;;;8.90;99.90;;;;;;5068672;28;20386;-71
2021/12/14 10:18:29;;;;;;;126.97;70.05;;;8.90;99.90;;;;;;5071062;28;20078;-71
2021/12/14 10:21:07;;;;;;;118.15;66.90;;;8.90;99.90;;;;;;5068210;28;20093;-70
2021/12/14 10:23:34;;;;;;;126.22;70.80;;;8.90;99.90;;;;;;5071331;28;20509;-70
2021/12/14 10:26:01;;;;;;;125.27;71.17;;;8.90;99.90;;;;;;5063087;28;20067;-70
2021/12/14 10:28:29;;;;;;;124.50;65.88;;;8.90;99.90;;;;;;5086307;28;20079;-70
2021/12/14 10:31:09;;;;;;;124.15;69.25;;;8.90;99.90;;;;;;5067622;28;20077;-71
2021/12/14 10:33:36;;;;;;;124.75;66.75;;;8.90;99.90;;;;;;5086709;28;20097;-71
2021/12/14 10:36:23;;;;;;;126.95;69.60;;;8.90;99.90;;;;;;5068438;28;20040;-71
2021/12/14 10:39:39;;;;;;;123.75;69.35;;;8.90;99.90;;;;;;5068280;28;20052;-71
2021/12/14 10:44:37;;;;;;;120.85;70.35;;;8.80;99.90;;;;;;5073946;28;20500;-71
2021/12/14 10:47:05;;;;;;;120.90;69.35;;;8.90;99.90;;;;;;5068697;28;20055;-71
2021/12/14 10:49:31;;;;;;;115.55;63.85;;;8.80;99.90;;;;;;5068130;28;20055;-71
2021/12/14 10:52:00;;;;;;;113.38;66.03;;;8.80;99.90;;;;;;5066359;28;20456;-71
2021/12/14 10:54:28;;;;;;;117.38;67.25;;;8.90;99.90;;;;;;5067277;28;20040;-71
2021/12/14 10:56:59;;;;;;;122.55;67.20;;;8.90;99.90;;;;;;5065444;28;20044;-71
2021/12/14 10:59:29;;;;;;;112.78;65.18;;;8.90;99.90;;;;;;5065868;28;20075;-71
2021/12/14 11:01:56;;;;;;;113.47;65.57;;;8.90;99.90;;;;;;5072198;28;20054;-71
2021/12/14 11:04:38;;;;;;;116.05;64.65;;;9.00;99.90;;;;;;5071125;28;20052;-71
2021/12/14 11:07:11;;;;;;;114.38;62.97;;;9.00;99.90;;;;;;5086368;28;20145;-71
2021/12/14 11:12:07;;;;;;;122.65;63.38;;;9.00;99.90;;;;;;5068044;28;20055;-71
2021/12/14 11:14:37;;;;;;;105.50;59.08;;;9.10;99.90;;;;;;5082362;28;20051;-71
2021/12/14 11:19:55;;;;;;;117.78;67.97;;;9.00;99.90;;;;;;5060433;28;20066;-71
2021/12/14 11:22:30;;;;;;;117.93;65.70;;;9.00;99.90;;;;;;5066201;28;20052;-71
2021/12/14 11:25:22;;;;;;;110.70;62.00;;;9.00;99.90;;;;;;5063020;28;20044;-71
2021/12/14 11:27:54;;;;;;;107.97;61.42;;;9.00;99.90;;;;;;5078623;28;20048;-71
2021/12/14 11:30:26;;;;;;;111.43;60.38;;;9.00;99.90;;;;;;5063949;28;20377;-71
2021/12/14 11:33:08;;;;;;;116.40;61.92;;;9.00;99.90;;;;;;5061238;28;20139;-71
2021/12/14 11:35:40;;;;;;;108.00;61.90;;;9.00;99.90;;;;;;5069262;28;20101;-71
2021/12/14 11:38:12;;;;;;;112.38;60.05;;;9.00;99.90;;;;;;5066320;28;20051;-71
2021/12/14 11:40:39;;;;;;;102.75;58.25;;;8.90;99.90;;;;;;5061866;28;20109;-71
2021/12/14 11:43:12;;;;;;;109.57;61.25;;;9.00;99.90;;;;;;5058343;28;20115;-71
2021/12/14 11:45:38;;;;;;;104.78;58.58;;;9.00;99.90;;;;;;5052688;28;20048;-71
2021/12/14 11:48:04;;;;;;;120.05;61.03;;;8.90;99.90;;;;;;5063684;28;20044;-71
2021/12/14 11:50:38;;;;;;;98.10;57.58;;;8.90;99.90;;;;;;5061602;28;20908;-71
2021/12/14 11:53:17;;;;;;;112.32;60.53;;;9.00;99.90;;;;;;5066139;28;20502;-71
2021/12/14 11:55:54;;;;;;;110.53;62.60;;;8.90;99.90;;;;;;5069389;28;20481;-71
2021/12/14 11:58:28;;;;;;;97.80;56.47;;;9.00;99.90;;;;;;5065708;28;20049;-71
2021/12/14 12:00:57;;;;;;;97.95;58.97;;;9.00;99.90;;;;;;5068203;28;20048;-71
2021/12/14 12:03:34;;;;;;;120.28;61.95;;;8.90;99.90;;;;;;5067123;28;20044;-71
2021/12/14 12:06:07;;;;;;;94.00;55.50;;;8.90;99.90;;;;;;5060807;28;20397;-71
2021/12/14 12:11:22;;;;;;;119.95;58.85;;;8.90;99.90;;;;;;5075427;28;20059;-71
2021/12/14 12:13:49;;;;;;;99.20;57.15;;;8.90;99.90;;;;;;5074476;28;20040;-71
2021/12/14 12:16:22;;;;;;;105.65;59.72;;;8.90;99.90;;;;;;5069344;28;20059;-70
2021/12/14 12:19:19;;;;;;;109.65;59.50;;;8.90;99.90;;;;;;5064636;28;20056;-71
2021/12/14 12:21:48;;;;;;;102.55;56.08;;;8.90;99.90;;;;;;5066194;28;20188;-71
2021/12/14 12:24:43;;;;;;;95.10;55.40;;;8.90;99.90;;;;;;5068994;28;20044;-70
2021/12/14 12:27:23;;;;;;;97.05;54.63;;;8.90;99.90;;;;;;5045665;28;20452;-71
2021/12/14 12:30:08;;;;;;;100.78;52.20;;;8.90;99.90;;;;;;5060205;28;20112;-71
2021/12/14 12:32:33;;;;;;;93.75;52.25;;;8.90;99.90;;;;;;5057240;28;20052;-70
2021/12/14 12:35:00;;;;;;;94.63;53.28;;;8.90;99.90;;;;;;5060620;28;20508;-71
2021/12/14 12:37:41;;;;;;;93.55;51.90;;;8.90;99.90;;;;;;5066149;28;20056;-71
2021/12/14 12:40:14;;;;;;;100.85;52.28;;;8.90;99.90;;;;;;5083505;28;20416;-70
2021/12/14 12:42:41;;;;;;;87.18;48.22;;;8.90;99.90;;;;;;5067661;28;20188;-71
2021/12/14 12:45:33;;;;;;;95.88;51.17;;;8.90;99.90;;;;;;5086639;28;20576;-71
2021/12/14 12:48:02;;;;;;;93.60;51.13;;;9.00;99.90;;;;;;5062639;28;20044;-71
2021/12/14 12:50:29;;;;;;;92.13;50.97;;;8.90;99.90;;;;;;5069472;28;20515;-71
2021/12/14 12:52:55;;;;;;;85.00;49.45;;;9.00;99.90;;;;;;5067774;28;20044;-71
2021/12/14 12:55:34;;;;;;;75.85;44.67;;;8.90;99.90;;;;;;5085790;28;20043;-71
2021/12/14 12:58:12;;;;;;;82.22;45.25;;;8.90;99.90;;;;;;5065591;28;20048;-70
2021/12/14 13:00:47;;;;;;;83.97;46.28;;;9.00;99.90;;;;;;5071002;28;20048;-70
2021/12/14 13:03:24;;;;;;;83.45;45.05;;;9.00;99.90;;;;;;5081487;28;20174;-70
2021/12/14 13:06:00;;;;;;;92.65;47.55;;;9.00;99.90;;;;;;5069421;28;20051;-70
2021/12/14 13:08:26;;;;;;;76.68;42.72;;;9.00;99.90;;;;;;5073176;28;20096;-70
2021/12/14 13:11:10;;;;;;;94.65;47.20;;;9.10;99.90;;;;;;5062158;28;20458;-71
2021/12/14 13:13:56;;;;;;;74.15;42.33;;;9.10;99.90;;;;;;5072517;28;20057;-71
2021/12/14 13:16:28;;;;;;;87.35;44.65;;;9.10;99.90;;;;;;5067749;28;20823;-71
2021/12/14 13:19:10;;;;;;;80.95;44.67;;;9.10;99.90;;;;;;5067438;28;20051;-70
2021/12/14 13:21:46;;;;;;;85.38;44.15;;;9.10;99.90;;;;;;5070197;28;20051;-70
2021/12/14 13:24:25;;;;;;;83.25;45.53;;;9.10;99.90;;;;;;5071368;28;20080;-71
2021/12/14 13:26:57;;;;;;;87.00;45.33;;;9.10;99.90;;;;;;5064099;28;20053;-70
2021/12/14 13:29:51;;;;;;;121.22;48.42;;;9.10;99.90;;;;;;5072697;28;20059;-71
2021/12/14 13:32:33;;;;;;;86.95;44.08;;;9.10;99.90;;;;;;5070987;28;20540;-71
2021/12/14 13:35:15;;;;;;;92.32;46.22;;;9.10;99.90;;;;;;5066859;28;20443;-71
2021/12/14 13:37:43;;;;;;;90.22;45.45;;;9.10;99.90;;;;;;5068662;28;20624;-71
2021/12/14 13:40:16;;;;;;;108.57;50.53;;;9.10;99.90;;;;;;5091051;28;20993;-71
2021/12/14 13:42:57;;;;;;;94.22;46.90;;;9.10;99.90;;;;;;5087764;28;20071;-71
2021/12/14 13:45:27;;;;;;;100.82;48.65;;;9.10;99.90;;;;;;5069697;28;20154;-71